KHLB

Batesville Airport

Batesville, Indiana, USA
METAR KHLB 151915Z AUTO VRB06G14KT 10SM CLR M02/M08 A2991 RMK A01
Observed Flight Rules
Feb-15 @ 19:15 UTC (29 minutes ago) Visual Flight Rules
Wind Visibility Clouds
Variable at 6 knots
 Gusting to 14 knots
10 miles
  • Clear skies
Temperatures Readings
Current -2°C / 28°F
Dewpoint -8°C / 18°F
Humidity 64%
Altimeter 29.91" Hg
Pressure 1012.92 hPa
METAR KHLB 151915Z AUTO VRB06G14KT 10SM CLR M02/M08 A2991 RMK A01
Observed Flight Rules
Feb-15 @ 19:15 UTC
(29 minutes ago)
VFR
Wind Visibility
Variable at 6 knots
 Gusting to 14 knots
10 miles
Clouds
  • Clear skies
Temperature Dewpoint
-2°C / 28°F -8°C / 18°F
Humidity Altimeter Pressure
64% 29.91" Hg 1012.92 hPa